createdAt,value
2022-11-14T00:00:56.038Z,101046.00
2022-11-14T00:03:22.585Z,101046.94
2022-11-14T00:05:48.947Z,101039.94
2022-11-14T00:08:20.722Z,101046.13
2022-11-14T00:10:48.797Z,101033.75
2022-11-14T00:13:15.947Z,101034.72
2022-11-14T00:15:42.704Z,101032.03
2022-11-14T00:18:09.269Z,101034.03
2022-11-14T00:20:35.806Z,101031.34
2022-11-14T00:23:02.117Z,101020.78
2022-11-14T00:25:28.515Z,101017.13
2022-11-14T00:27:58.657Z,101013.63
2022-11-14T00:30:25.895Z,101010.97
2022-11-14T00:32:52.243Z,101008.28
2022-11-14T00:35:18.642Z,100998.59
2022-11-14T00:37:45.025Z,100994.22
2022-11-14T00:40:11.796Z,101001.38
2022-11-14T00:42:38.116Z,100997.88
2022-11-14T00:45:05.040Z,101003.31
2022-11-14T00:47:31.381Z,101001.66
2022-11-14T00:49:57.707Z,100998.25
2022-11-14T00:52:24.407Z,101003.59
2022-11-14T00:54:50.742Z,100994.84
2022-11-14T00:57:17.143Z,100991.50
2022-11-14T00:59:43.484Z,100987.13
2022-11-14T01:02:09.812Z,100992.59
2022-11-14T01:04:36.156Z,100986.44
2022-11-14T01:07:02.509Z,100997.09
2022-11-14T01:09:29.002Z,100990.03
2022-11-14T01:11:55.421Z,100989.31
2022-11-14T01:14:21.745Z,100990.31
2022-11-14T01:16:48.228Z,100986.91
2022-11-14T01:19:14.552Z,100970.06
2022-11-14T01:21:40.900Z,100967.50
2022-11-14T01:24:07.386Z,100962.31
2022-11-14T01:26:33.828Z,100961.50
2022-11-14T01:29:00.158Z,100958.09
2022-11-14T01:31:26.657Z,100957.38
2022-11-14T01:33:54.254Z,100959.06
2022-11-14T01:36:21.098Z,100945.84
2022-11-14T01:38:51.506Z,100950.34
2022-11-14T01:41:17.886Z,100940.63
2022-11-14T01:43:44.235Z,100937.97
2022-11-14T01:46:27.655Z,100937.13
2022-11-14T01:49:13.179Z,100937.13
2022-11-14T01:51:45.525Z,100933.63
2022-11-14T01:54:17.981Z,100930.97
2022-11-14T01:56:51.158Z,100929.28
2022-11-14T01:59:22.801Z,100920.41
2022-11-14T02:01:51.598Z,100923.22
2022-11-14T02:04:22.488Z,100913.50
2022-11-14T02:06:50.387Z,100922.50
2022-11-14T02:09:16.749Z,100917.16
2022-11-14T02:11:45.500Z,100917.03
2022-11-14T02:14:12.398Z,100916.31
2022-11-14T02:16:41.060Z,100906.50
2022-11-14T02:19:08.462Z,100905.66
2022-11-14T02:21:34.931Z,100907.47
2022-11-14T02:24:01.266Z,100904.09
2022-11-14T02:26:27.858Z,100906.75
2022-11-14T02:28:56.329Z,100900.59
2022-11-14T02:31:22.722Z,100904.19
2022-11-14T02:33:49.046Z,100894.63
2022-11-14T02:36:15.383Z,100883.25
2022-11-14T02:38:41.719Z,100885.91
2022-11-14T02:41:08.033Z,100878.19
2022-11-14T02:43:34.465Z,100876.50
2022-11-14T02:46:05.386Z,100882.09
2022-11-14T02:48:32.530Z,100870.69
2022-11-14T02:50:59.153Z,100874.34
2022-11-14T02:53:25.507Z,100873.63
2022-11-14T02:55:51.879Z,100872.91
2022-11-14T02:58:18.196Z,100876.56
2022-11-14T03:01:13.763Z,100867.84
2022-11-14T03:03:30.895Z,100868.69
2022-11-14T03:06:01.486Z,100857.16
2022-11-14T03:08:28.368Z,100859.13
2022-11-14T03:10:55.063Z,100865.53
2022-11-14T03:13:22.268Z,100868.34
2022-11-14T03:15:48.619Z,100864.97
2022-11-14T03:18:14.952Z,100857.09
2022-11-14T03:20:41.351Z,100865.22
2022-11-14T03:23:07.669Z,100868.84
2022-11-14T03:25:34.127Z,100862.78
2022-11-14T03:28:00.449Z,100862.09
2022-11-14T03:30:26.788Z,100865.84
2022-11-14T03:32:53.246Z,100861.50
2022-11-14T03:35:19.562Z,100859.81
2022-11-14T03:37:45.941Z,100860.91
2022-11-14T03:40:12.475Z,100866.22
2022-11-14T03:42:38.799Z,100857.50
2022-11-14T03:45:05.825Z,100849.66
2022-11-14T03:47:32.329Z,100862.13
2022-11-14T03:49:58.663Z,100854.38
2022-11-14T03:52:26.053Z,100841.19
2022-11-14T03:54:52.387Z,100832.47
2022-11-14T03:57:18.731Z,100827.25
2022-11-14T03:59:45.058Z,100838.91
2022-11-14T04:02:11.387Z,100836.34
2022-11-14T04:04:37.692Z,100824.88
2022-11-14T04:07:04.109Z,100816.16
2022-11-14T04:09:30.513Z,100813.47
2022-11-14T04:11:56.833Z,100809.13
2022-11-14T04:14:23.285Z,100816.28
2022-11-14T04:16:49.652Z,100809.13
2022-11-14T04:19:16.001Z,100808.31
2022-11-14T04:21:42.366Z,100809.13
2022-11-14T04:24:11.195Z,100805.75
2022-11-14T04:26:37.833Z,100800.41
2022-11-14T04:29:04.171Z,100801.25
2022-11-14T04:31:30.534Z,100803.09
2022-11-14T04:33:56.976Z,100794.25
2022-11-14T04:36:23.314Z,100791.59
2022-11-14T04:38:49.620Z,100790.75
2022-11-14T04:41:16.091Z,100793.41
2022-11-14T04:43:45.587Z,100785.28
2022-11-14T04:46:14.473Z,100792.44
2022-11-14T04:48:40.953Z,100786.16
2022-11-14T04:51:14.171Z,100787.81
2022-11-14T04:53:40.680Z,100783.47
2022-11-14T04:56:07.210Z,100779.94
2022-11-14T04:58:33.732Z,100784.44
2022-11-14T05:01:00.308Z,100774.75
2022-11-14T05:03:26.675Z,100766.78
2022-11-14T05:05:53.002Z,100778.38
2022-11-14T05:08:19.486Z,100770.53
2022-11-14T05:10:46.159Z,100766.16
2022-11-14T05:13:12.864Z,100756.59
2022-11-14T05:15:39.334Z,100755.78
2022-11-14T05:18:05.768Z,100756.75
2022-11-14T05:20:32.119Z,100741.72
2022-11-14T05:22:58.516Z,100757.72
2022-11-14T05:25:24.949Z,100756.03
2022-11-14T05:27:51.281Z,100754.19
2022-11-14T05:30:17.729Z,100748.03
2022-11-14T05:32:44.661Z,100749.88
2022-11-14T05:35:11.288Z,100743.69
2022-11-14T05:37:37.819Z,100749.88
2022-11-14T05:40:06.332Z,100739.22
2022-11-14T05:42:32.682Z,100750.69
2022-11-14T05:44:59.039Z,100739.22
2022-11-14T05:47:25.365Z,100746.38
2022-11-14T05:49:51.687Z,100740.06
2022-11-14T05:52:18.055Z,100731.94
2022-11-14T05:54:44.391Z,100731.94
2022-11-14T05:57:10.725Z,100728.28
2022-11-14T05:59:37.052Z,100741.50
2022-11-14T06:02:03.473Z,100729.75
2022-11-14T06:04:29.839Z,100738.44
2022-11-14T06:06:56.197Z,100732.00
2022-11-14T06:09:22.818Z,100734.53
2022-11-14T06:11:49.157Z,100738.78
2022-11-14T06:14:15.699Z,100746.66
2022-11-14T06:16:42.051Z,100740.19
2022-11-14T06:19:08.554Z,100738.25
2022-11-14T06:21:34.975Z,100746.13
2022-11-14T06:24:01.509Z,100750.47
2022-11-14T06:26:32.669Z,100752.16
2022-11-14T06:29:00.107Z,100749.50
2022-11-14T06:31:26.857Z,100755.69
2022-11-14T06:33:53.378Z,100761.84
2022-11-14T06:36:19.704Z,100761.97
2022-11-14T06:38:46.256Z,100755.69
2022-11-14T06:41:18.398Z,100755.69
2022-11-14T06:43:47.320Z,100757.50
2022-11-14T06:46:16.096Z,100761.84
2022-11-14T06:48:45.182Z,100749.50
2022-11-14T06:51:13.228Z,100752.88
2022-11-14T06:53:41.102Z,100751.06
2022-11-14T06:56:13.219Z,100743.75
2022-11-14T06:58:42.495Z,100754.19
2022-11-14T07:01:13.726Z,100745.34
2022-11-14T07:03:41.105Z,100747.88
2022-11-14T07:06:08.224Z,100743.28
2022-11-14T07:08:35.144Z,100745.09
2022-11-14T07:11:03.990Z,100743.97
2022-11-14T07:13:31.419Z,100739.50
2022-11-14T07:15:58.116Z,100731.50
2022-11-14T07:18:24.501Z,100724.34
2022-11-14T07:20:57.694Z,100735.97
2022-11-14T07:23:24.022Z,100738.63
2022-11-14T07:25:50.350Z,100738.63
2022-11-14T07:28:16.709Z,100743.97
2022-11-14T07:30:43.041Z,100738.50
2022-11-14T07:33:10.138Z,100740.19
2022-11-14T07:35:39.250Z,100737.28
2022-11-14T07:38:05.857Z,100727.19
2022-11-14T07:40:32.236Z,100724.25
2022-11-14T07:43:00.426Z,100722.16
2022-11-14T07:45:28.341Z,100727.25
2022-11-14T07:48:02.203Z,100727.00
2022-11-14T07:50:30.379Z,100739.06
2022-11-14T07:52:57.565Z,100730.84
2022-11-14T07:55:24.715Z,100722.56
2022-11-14T07:57:54.869Z,100722.03
2022-11-14T08:00:21.868Z,100726.25
2022-11-14T08:02:48.292Z,100724.16
2022-11-14T08:05:14.703Z,100727.41
2022-11-14T08:07:41.109Z,100727.13
2022-11-14T08:10:08.660Z,100726.03
2022-11-14T08:12:35.042Z,100726.75
2022-11-14T08:15:01.573Z,100735.31
2022-11-14T08:17:27.922Z,100734.19
2022-11-14T08:19:54.338Z,100723.25
2022-11-14T08:22:20.748Z,100727.19
2022-11-14T08:24:47.118Z,100728.63
2022-11-14T08:27:13.436Z,100734.25
2022-11-14T08:29:39.790Z,100734.69
2022-11-14T08:32:06.175Z,100733.31
2022-11-14T08:34:32.744Z,100730.94
2022-11-14T08:36:59.109Z,100740.09
2022-11-14T08:39:25.465Z,100741.38
2022-11-14T08:41:51.830Z,100742.53
2022-11-14T08:44:18.249Z,100745.63
2022-11-14T08:46:44.596Z,100740.69
2022-11-14T08:49:10.970Z,100739.44
2022-11-14T08:51:37.525Z,100739.03
2022-11-14T08:54:04.003Z,100743.25
2022-11-14T08:56:30.404Z,100746.47
2022-11-14T08:58:56.768Z,100738.03
2022-11-14T09:01:23.126Z,100726.25
2022-11-14T09:03:50.260Z,100723.00
2022-11-14T09:06:17.761Z,100727.09
2022-11-14T09:08:44.113Z,100729.31
2022-11-14T09:11:11.690Z,100728.19
2022-11-14T09:13:40.164Z,100736.91
2022-11-14T09:16:06.758Z,100732.97
2022-11-14T09:18:33.561Z,100739.72
2022-11-14T09:21:06.489Z,100734.09
2022-11-14T09:23:33.858Z,100733.81
2022-11-14T09:26:07.840Z,100734.28
2022-11-14T09:28:34.838Z,100735.66
2022-11-14T09:31:06.660Z,100725.38
2022-11-14T09:33:34.435Z,100725.66
2022-11-14T09:36:03.260Z,100725.91
2022-11-14T09:38:33.987Z,100727.03
2022-11-14T09:41:26.829Z,100709.13
2022-11-14T09:44:09.337Z,100716.25
2022-11-14T09:49:31.685Z,100722.81
2022-11-14T09:52:26.073Z,100705.91
2022-11-14T09:54:56.990Z,100711.34
2022-11-14T09:57:25.368Z,100706.22
2022-11-14T09:59:51.969Z,100702.81
2022-11-14T10:02:41.239Z,100699.25
2022-11-14T10:05:10.596Z,100682.25
2022-11-14T10:07:49.100Z,100685.56
2022-11-14T10:10:43.489Z,100683.63
2022-11-14T10:13:29.026Z,100679.91
2022-11-14T10:16:15.435Z,100660.06
2022-11-14T10:19:00.134Z,100661.97
2022-11-14T10:21:59.349Z,100644.13
2022-11-14T10:24:39.869Z,100642.50
2022-11-14T10:27:30.918Z,100652.44
2022-11-14T10:30:08.740Z,100658.03
2022-11-14T10:32:41.546Z,100643.00
2022-11-14T10:35:16.878Z,100637.69
2022-11-14T10:38:14.083Z,100632.38
2022-11-14T10:40:42.834Z,100616.44
2022-11-14T10:43:39.705Z,100644.00
2022-11-14T10:46:14.620Z,100644.41
2022-11-14T10:48:44.103Z,100624.66
2022-11-14T10:51:33.087Z,100637.09
2022-11-14T10:54:36.845Z,100649.38
2022-11-14T10:57:03.201Z,100654.81
2022-11-14T10:59:29.566Z,100661.03
2022-11-14T11:01:57.974Z,100653.00
2022-11-14T11:04:36.549Z,100657.38
2022-11-14T11:07:08.826Z,100654.72
2022-11-14T11:10:00.174Z,100651.19
2022-11-14T11:13:05.054Z,100650.69
2022-11-14T11:15:38.479Z,100660.63
2022-11-14T11:18:24.398Z,100640.31
2022-11-14T11:21:15.135Z,100634.75
2022-11-14T11:23:49.262Z,100639.31
2022-11-14T11:26:28.289Z,100646.69
2022-11-14T11:29:15.760Z,100657.63
2022-11-14T11:31:52.950Z,100649.88
2022-11-14T11:34:27.618Z,100642.97
2022-11-14T11:37:01.279Z,100620.13
2022-11-14T11:39:35.424Z,100622.47
2022-11-14T11:42:10.151Z,100602.25
2022-11-14T11:44:43.696Z,100611.66
2022-11-14T11:47:15.301Z,100596.84
2022-11-14T11:49:54.317Z,100601.72
2022-11-14T11:52:27.851Z,100588.09
2022-11-14T11:54:59.511Z,100585.72
2022-11-14T11:57:34.951Z,100601.69
2022-11-14T12:00:21.907Z,100598.47
2022-11-14T12:02:50.753Z,100600.81
2022-11-14T12:05:54.178Z,100610.38
2022-11-14T12:08:33.324Z,100613.56
2022-11-14T12:11:02.107Z,100599.78
2022-11-14T12:13:57.550Z,100612.69
2022-11-14T12:16:51.982Z,100605.28
2022-11-14T12:19:41.807Z,100600.41
2022-11-14T12:22:43.194Z,100598.34
2022-11-14T12:25:09.563Z,100588.44
2022-11-14T12:27:55.566Z,100588.09
2022-11-14T12:30:24.159Z,100576.13
2022-11-14T12:33:10.210Z,100553.38
2022-11-14T12:35:37.265Z,100565.66
2022-11-14T12:38:06.565Z,100562.63
2022-11-14T12:40:37.584Z,100570.34
2022-11-14T12:43:24.213Z,100565.63
2022-11-14T12:45:50.517Z,100559.88
2022-11-14T12:48:30.506Z,100559.50
2022-11-14T12:50:59.033Z,100551.91
2022-11-14T12:53:37.436Z,100548.03
2022-11-14T12:56:12.738Z,100554.09
2022-11-14T12:58:56.911Z,100541.75
2022-11-14T13:01:51.507Z,100541.22
2022-11-14T13:04:42.357Z,100538.16
2022-11-14T13:07:34.348Z,100534.25
2022-11-14T13:10:27.814Z,100526.00
2022-11-14T13:13:30.479Z,100512.53
2022-11-14T13:16:20.018Z,100514.19
2022-11-14T13:19:37.201Z,100504.09
2022-11-14T13:22:12.607Z,100507.59
2022-11-14T13:25:02.089Z,100506.78
2022-11-14T13:28:05.141Z,100508.44
2022-11-14T13:30:39.853Z,100511.13
2022-11-14T13:33:06.202Z,100511.44
2022-11-14T13:35:40.835Z,100506.69
2022-11-14T13:38:31.717Z,100505.03
2022-11-14T13:41:24.427Z,100499.66
2022-11-14T13:44:12.434Z,100490.53
2022-11-14T13:46:53.634Z,100497.59
2022-11-14T13:49:37.940Z,100496.59
2022-11-14T13:52:04.941Z,100493.06
2022-11-14T13:54:31.940Z,100476.88
2022-11-14T13:57:19.186Z,100479.38
2022-11-14T14:00:00.329Z,100478.38
2022-11-14T14:02:43.663Z,100481.91
2022-11-14T14:05:24.924Z,100471.28
2022-11-14T14:08:07.975Z,100482.75
2022-11-14T14:10:57.400Z,100470.28
2022-11-14T14:13:33.033Z,100457.81
2022-11-14T14:16:30.811Z,100473.16
2022-11-14T14:19:41.851Z,100466.28
2022-11-14T14:22:34.963Z,100466.66
2022-11-14T14:25:26.634Z,100475.09
2022-11-14T14:28:04.893Z,100473.78
2022-11-14T14:30:31.411Z,100473.47
2022-11-14T14:33:14.147Z,100471.16
2022-11-14T14:35:51.598Z,100464.63
2022-11-14T14:38:27.635Z,100452.53
2022-11-14T14:40:55.940Z,100458.50
2022-11-14T14:43:34.788Z,100458.81
2022-11-14T14:46:01.871Z,100451.28
2022-11-14T14:48:31.709Z,100454.13
2022-11-14T14:51:00.143Z,100452.84
2022-11-14T14:53:31.688Z,100454.03
2022-11-14T14:56:04.203Z,100453.53
2022-11-14T14:58:33.135Z,100460.31
2022-11-14T15:01:13.875Z,100450.75
2022-11-14T15:03:53.573Z,100446.72
2022-11-14T15:06:20.417Z,100454.50
2022-11-14T15:08:47.518Z,100443.25
2022-11-14T15:11:14.875Z,100440.06
2022-11-14T15:13:42.866Z,100452.22
2022-11-14T15:16:10.610Z,100448.41
2022-11-14T15:18:37.518Z,100455.97
2022-11-14T15:21:15.794Z,100446.59
2022-11-14T15:23:42.377Z,100449.81
2022-11-14T15:26:18.526Z,100456.56
2022-11-14T15:28:45.265Z,100456.28
2022-11-14T15:31:20.845Z,100443.13
2022-11-14T15:34:20.777Z,100453.91
2022-11-14T15:37:16.378Z,100440.44
2022-11-14T15:39:43.370Z,100443.13
2022-11-14T15:42:26.520Z,100434.75
2022-11-14T15:44:53.603Z,100419.44
2022-11-14T15:47:24.037Z,100398.72
2022-11-14T15:50:02.960Z,100402.44
2022-11-14T15:52:39.183Z,100402.63
2022-11-14T15:55:20.181Z,100398.59
2022-11-14T15:57:56.065Z,100394.75
2022-11-14T16:00:32.900Z,100403.03
2022-11-14T16:02:59.360Z,100401.22
2022-11-14T16:05:29.842Z,100399.41
2022-11-14T16:07:56.854Z,100395.94
2022-11-14T16:10:25.723Z,100411.06
2022-11-14T16:12:53.048Z,100427.06
2022-11-14T16:15:20.824Z,100417.84
2022-11-14T16:17:49.357Z,100416.53
2022-11-14T16:20:18.168Z,100417.19
2022-11-14T16:22:45.881Z,100412.16
2022-11-14T16:25:18.896Z,100414.34
2022-11-14T16:27:46.281Z,100415.19
2022-11-14T16:30:14.692Z,100420.94
2022-11-14T16:32:46.297Z,100418.75
2022-11-14T16:35:20.725Z,100411.88
2022-11-14T16:37:47.271Z,100405.34
2022-11-14T16:40:27.992Z,100400.31
2022-11-14T16:42:56.569Z,100406.19
2022-11-14T16:45:23.506Z,100404.84
2022-11-14T16:47:50.295Z,100390.91
2022-11-14T16:50:18.368Z,100390.25
2022-11-14T16:52:44.713Z,100391.25
2022-11-14T16:55:12.003Z,100389.41
2022-11-14T16:57:38.954Z,100392.94
2022-11-14T17:00:07.536Z,100383.03
2022-11-14T17:02:33.886Z,100379.00
2022-11-14T17:05:00.440Z,100378.66
2022-11-14T17:07:30.436Z,100380.81
2022-11-14T17:09:56.846Z,100377.63
2022-11-14T17:12:23.219Z,100378.94
2022-11-14T17:14:49.678Z,100379.28
2022-11-14T17:17:16.042Z,100371.53
2022-11-14T17:19:46.020Z,100378.25
2022-11-14T17:22:13.765Z,100375.88
2022-11-14T17:24:40.353Z,100367.31
2022-11-14T17:27:07.742Z,100373.19
2022-11-14T17:29:34.143Z,100368.13
2022-11-14T17:32:01.031Z,100370.47
2022-11-14T17:34:27.430Z,100372.63
2022-11-14T17:36:53.928Z,100360.69
2022-11-14T17:39:20.304Z,100364.69
2022-11-14T17:41:46.693Z,100359.78
2022-11-14T17:44:13.003Z,100346.84
2022-11-14T17:46:39.403Z,100348.34
2022-11-14T17:49:05.840Z,100346.31
2022-11-14T17:51:32.350Z,100344.28
2022-11-14T17:53:58.667Z,100344.13
2022-11-14T17:56:26.216Z,100342.25
2022-11-14T17:58:53.630Z,100347.47
2022-11-14T18:01:23.178Z,100342.09
2022-11-14T18:03:50.316Z,100339.41
2022-11-14T18:06:19.273Z,100342.91
2022-11-14T18:08:45.938Z,100330.31
2022-11-14T18:11:13.741Z,100328.44
2022-11-14T18:13:40.915Z,100335.53
2022-11-14T18:16:19.202Z,100331.63
2022-11-14T18:18:46.198Z,100333.31
2022-11-14T18:21:19.934Z,100322.53
2022-11-14T18:23:57.888Z,100327.56
2022-11-14T18:26:27.842Z,100316.78
2022-11-14T18:28:58.534Z,100317.47
2022-11-14T18:31:25.242Z,100314.78
2022-11-14T18:33:51.964Z,100311.91
2022-11-14T18:36:18.876Z,100315.44
2022-11-14T18:38:45.851Z,100311.72
2022-11-14T18:41:19.129Z,100319.44
2022-11-14T18:43:46.100Z,100314.06
2022-11-14T18:46:21.566Z,100313.69
2022-11-14T18:48:51.950Z,100312.69
2022-11-14T18:51:28.928Z,100314.34
2022-11-14T18:53:56.452Z,100313.34
2022-11-14T18:56:24.767Z,100314.34
2022-11-14T18:58:57.559Z,100315.69
2022-11-14T19:01:26.422Z,100306.56
2022-11-14T19:03:56.687Z,100312.63
2022-11-14T19:06:23.441Z,100310.75
2022-11-14T19:08:49.990Z,100303.34
2022-11-14T19:11:36.636Z,100308.56
2022-11-14T19:14:05.571Z,100301.13
2022-11-14T19:16:33.591Z,100297.44
2022-11-14T19:19:00.710Z,100302.63
2022-11-14T19:21:27.676Z,100298.94
2022-11-14T19:23:54.890Z,100286.31
2022-11-14T19:26:22.461Z,100288.81
2022-11-14T19:28:49.593Z,100284.91
2022-11-14T19:31:16.679Z,100277.69
2022-11-14T19:33:43.311Z,100290.13
2022-11-14T19:36:18.806Z,100281.88
2022-11-14T19:38:59.226Z,100291.44
2022-11-14T19:41:27.933Z,100297.66
2022-11-14T19:43:56.093Z,100289.59
2022-11-14T19:46:24.968Z,100293.09
2022-11-14T19:49:01.540Z,100294.44
2022-11-14T19:51:29.187Z,100293.56
2022-11-14T19:53:57.826Z,100293.56
2022-11-14T19:56:26.400Z,100296.91
2022-11-14T19:58:55.228Z,100294.22
2022-11-14T20:01:24.344Z,100286.16
2022-11-14T20:03:52.127Z,100286.97
2022-11-14T20:06:23.204Z,100297.59
2022-11-14T20:08:50.661Z,100297.59
2022-11-14T20:11:17.254Z,100297.59
2022-11-14T20:13:44.082Z,100300.28
2022-11-14T20:16:16.204Z,100297.38
2022-11-14T20:18:47.737Z,100297.38
2022-11-14T20:21:15.995Z,100294.69
2022-11-14T20:23:43.349Z,100290.34
2022-11-14T20:26:11.602Z,100287.47
2022-11-14T20:28:42.322Z,100282.94
2022-11-14T20:31:15.408Z,100279.41
2022-11-14T20:33:43.734Z,100287.47
2022-11-14T20:36:16.717Z,100283.75
2022-11-14T20:38:44.581Z,100285.63
2022-11-14T20:41:12.355Z,100284.78
2022-11-14T20:43:38.785Z,100278.38
2022-11-14T20:46:09.230Z,100282.72
2022-11-14T20:48:35.796Z,100290.81
2022-11-14T20:51:04.328Z,100281.06
2022-11-14T20:53:32.196Z,100286.44
2022-11-14T20:56:00.086Z,100291.66
2022-11-14T20:58:27.552Z,100287.09
2022-11-14T21:00:54.541Z,100289.81
2022-11-14T21:03:21.151Z,100293.50
2022-11-14T21:05:47.505Z,100292.50
2022-11-14T21:08:14.374Z,100296.19
2022-11-14T21:10:45.858Z,100295.34
2022-11-14T21:13:36.338Z,100302.59
2022-11-14T21:16:07.950Z,100300.75
2022-11-14T21:18:35.377Z,100297.38
2022-11-14T21:21:04.736Z,100301.94
2022-11-14T21:23:31.741Z,100306.50
2022-11-14T21:26:03.443Z,100317.25
2022-11-14T21:28:32.153Z,100308.53
2022-11-14T21:31:00.640Z,100309.56
2022-11-14T21:33:29.444Z,100314.94
2022-11-14T21:35:57.289Z,100311.59
2022-11-14T21:38:24.470Z,100315.47
2022-11-14T21:40:53.110Z,100311.28
2022-11-14T21:43:19.824Z,100312.47
2022-11-14T21:46:05.545Z,100310.00
2022-11-14T21:48:38.773Z,100308.50
2022-11-14T21:51:21.933Z,100312.19
2022-11-14T21:53:52.214Z,100312.75
2022-11-14T21:56:24.126Z,100306.88
2022-11-14T21:58:51.878Z,100307.59
2022-11-14T22:01:40.476Z,100302.09
2022-11-14T22:04:13.594Z,100301.31
2022-11-14T22:06:43.759Z,100307.75
2022-11-14T22:09:10.718Z,100303.63
2022-11-14T22:11:40.466Z,100312.94
2022-11-14T22:14:07.416Z,100320.56
2022-11-14T22:16:34.828Z,100310.03
2022-11-14T22:19:05.239Z,100310.41
2022-11-14T22:21:32.256Z,100310.78
2022-11-14T22:23:58.646Z,100320.53
2022-11-14T22:26:25.074Z,100318.38
2022-11-14T22:28:51.456Z,100312.69
2022-11-14T22:31:22.839Z,100321.56
2022-11-14T22:33:52.081Z,100308.31
2022-11-14T22:36:21.174Z,100316.38
2022-11-14T22:38:48.344Z,100310.19
2022-11-14T22:41:32.310Z,100308.13
2022-11-14T22:44:00.312Z,100311.16
2022-11-14T22:46:27.696Z,100310.50
2022-11-14T22:48:54.835Z,100301.13
2022-11-14T22:51:23.720Z,100295.44
2022-11-14T22:53:52.235Z,100296.97
2022-11-14T22:56:24.369Z,100310.22
2022-11-14T22:58:50.985Z,100302.19
2022-11-14T23:01:23.349Z,100300.19
2022-11-14T23:03:54.685Z,100298.22
2022-11-14T23:06:21.758Z,100310.28
2022-11-14T23:08:48.229Z,100311.28
2022-11-14T23:11:18.100Z,100314.81
2022-11-14T23:13:49.315Z,100310.94
2022-11-14T23:16:21.866Z,100298.84
2022-11-14T23:18:49.184Z,100310.94
2022-11-14T23:21:18.846Z,100309.56
2022-11-14T23:23:45.333Z,100310.91
2022-11-14T23:26:16.791Z,100304.84
2022-11-14T23:28:43.240Z,100302.84
2022-11-14T23:31:11.470Z,100309.38
2022-11-14T23:33:38.423Z,100307.19
2022-11-14T23:36:05.073Z,100305.81
2022-11-14T23:38:31.670Z,100305.47
2022-11-14T23:41:00.251Z,100300.63
2022-11-14T23:43:27.633Z,100304.81
2022-11-14T23:45:54.105Z,100303.44
2022-11-14T23:48:21.549Z,100292.53
2022-11-14T23:50:52.945Z,100297.38
2022-11-14T23:53:19.702Z,100292.66
2022-11-14T23:55:59.709Z,100291.31
2022-11-14T23:58:27.797Z,100291.13
